MHU123L RJSS-RJCC
Flight info
| Callsign | MHU123L |
|---|---|
| Flight time | N/A |
| Altitude | 35000 |
| Route | CUBIC4 SAMBO Y119 OHMAR Y13 SIRAO Y139 NAVER NAGANS |
| Aircraft | E170/M-SDE3GILORVW/S |
Departure
| Time | 2026-04-17 06:40 |
|---|---|
| Airport | Sendai Airport (RJSS) |
Arrival
| Time | N/A |
|---|---|
| Airport | New Chitose Airport (RJCC) |
| Time | Latitude | Longitude | Altitude | Speed | Heading |
|---|---|---|---|---|---|
| 2026-04-17 06:13 | 38.13879 | 140.92636 | 10 ft | 0 kts | 173° |
| 2026-04-17 06:30 | 38.13894 | 140.92634 | 10 ft | 4 kts | 173° |
| 2026-04-17 06:30 | 38.13921 | 140.92630 | 11 ft | 4 kts | 173° |
| 2026-04-17 06:31 | 38.13947 | 140.92628 | 10 ft | 4 kts | 182° |
| 2026-04-17 06:31 | 38.13973 | 140.92636 | 11 ft | 4 kts | 209° |
| 2026-04-17 06:31 | 38.13979 | 140.92641 | 12 ft | 2 kts | 215° |
| 2026-04-17 06:33 | 38.13975 | 140.92636 | 11 ft | 1 kts | 229° |
| 2026-04-17 06:34 | 38.13974 | 140.92631 | 11 ft | 0 kts | 271° |
| 2026-04-17 06:34 | 38.13975 | 140.92622 | 14 ft | 3 kts | 281° |
| 2026-04-17 06:34 | 38.13982 | 140.92582 | 11 ft | 6 kts | 281° |
| 2026-04-17 06:34 | 38.13981 | 140.92513 | 11 ft | 10 kts | 257° |
| 2026-04-17 06:35 | 38.13972 | 140.92422 | 12 ft | 11 kts | 262° |
| 2026-04-17 06:35 | 38.13960 | 140.92311 | 11 ft | 14 kts | 263° |
| 2026-04-17 06:35 | 38.13946 | 140.92172 | 11 ft | 18 kts | 262° |
| 2026-04-17 06:35 | 38.13927 | 140.92002 | 11 ft | 21 kts | 261° |
| 2026-04-17 06:36 | 38.13906 | 140.91808 | 11 ft | 23 kts | 264° |
| 2026-04-17 06:36 | 38.13885 | 140.91614 | 13 ft | 22 kts | 260° |
| 2026-04-17 06:36 | 38.13866 | 140.91414 | 11 ft | 23 kts | 265° |
| 2026-04-17 06:36 | 38.13845 | 140.91198 | 11 ft | 26 kts | 263° |
| 2026-04-17 06:37 | 38.13821 | 140.90968 | 10 ft | 27 kts | 262° |
| 2026-04-17 06:37 | 38.13791 | 140.90720 | 10 ft | 30 kts | 263° |
| 2026-04-17 06:37 | 38.13769 | 140.90452 | 11 ft | 28 kts | 263° |
| 2026-04-17 06:37 | 38.13750 | 140.90264 | 10 ft | 22 kts | 259° |
| 2026-04-17 06:38 | 38.13718 | 140.90091 | 10 ft | 18 kts | 274° |
| 2026-04-17 06:38 | 38.13736 | 140.89930 | 11 ft | 17 kts | 306° |
| 2026-04-17 06:38 | 38.13803 | 140.89897 | 15 ft | 9 kts | 354° |
| 2026-04-17 06:38 | 38.13867 | 140.89892 | 14 ft | 9 kts | 3° |
| 2026-04-17 06:39 | 38.13877 | 140.89899 | 14 ft | 0 kts | 84° |
| 2026-04-17 06:39 | 38.13879 | 140.89921 | 15 ft | 5 kts | 80° |
| 2026-04-17 06:39 | 38.13891 | 140.90044 | 14 ft | 38 kts | 83° |
| 2026-04-17 06:39 | 38.13965 | 140.90712 | 15 ft | 113 kts | 82° |
| 2026-04-17 06:40 | 38.14096 | 140.91896 | 308 ft | 145 kts | 84° |
| 2026-04-17 06:40 | 38.14258 | 140.93263 | 1117 ft | 169 kts | 86° |
| 2026-04-17 06:40 | 38.14437 | 140.94880 | 2027 ft | 202 kts | 87° |
| 2026-04-17 06:40 | 38.14607 | 140.96774 | 3070 ft | 224 kts | 88° |
| 2026-04-17 06:41 | 38.14760 | 140.98811 | 4422 ft | 235 kts | 89° |
| 2026-04-17 06:41 | 38.14880 | 141.00980 | 5773 ft | 260 kts | 91° |
| 2026-04-17 06:41 | 38.14504 | 141.03296 | 6957 ft | 274 kts | 120° |
| 2026-04-17 06:41 | 38.13394 | 141.05291 | 8415 ft | 282 kts | 129° |
| 2026-04-17 06:42 | 38.12213 | 141.07331 | 9878 ft | 292 kts | 128° |
| 2026-04-17 06:42 | 38.11096 | 141.09530 | 10732 ft | 302 kts | 123° |
| 2026-04-17 06:42 | 38.10073 | 141.11917 | 11295 ft | 313 kts | 119° |
| 2026-04-17 06:42 | 38.09087 | 141.14436 | 11837 ft | 325 kts | 118° |
| 2026-04-17 06:43 | 38.08068 | 141.17012 | 12559 ft | 328 kts | 122° |
| 2026-04-17 06:43 | 38.07040 | 141.19677 | 12937 ft | 347 kts | 108° |
| 2026-04-17 06:43 | 38.06816 | 141.22797 | 13277 ft | 366 kts | 83° |
| 2026-04-17 06:43 | 38.07604 | 141.25893 | 13729 ft | 374 kts | 58° |
| 2026-04-17 06:44 | 38.09239 | 141.28459 | 14315 ft | 375 kts | 42° |
| 2026-04-17 06:44 | 38.11118 | 141.30786 | 14855 ft | 381 kts | 41° |
| 2026-04-17 06:44 | 38.13046 | 141.33154 | 15382 ft | 389 kts | 41° |
| 2026-04-17 06:44 | 38.15004 | 141.35556 | 16021 ft | 393 kts | 41° |
| 2026-04-17 06:45 | 38.16982 | 141.37978 | 16656 ft | 397 kts | 41° |
| 2026-04-17 06:45 | 38.18978 | 141.40423 | 17296 ft | 401 kts | 41° |
| 2026-04-17 06:45 | 38.20991 | 141.42891 | 17954 ft | 404 kts | 41° |